createdAt,value
2019-02-14T00:00:37.177Z,35.30
2019-02-14T00:01:36.975Z,34.60
2019-02-14T00:02:36.887Z,35.30
2019-02-14T00:03:37.023Z,35.00
2019-02-14T00:04:36.712Z,36.40
2019-02-14T00:05:36.624Z,30.40
2019-02-14T00:06:36.604Z,32.30
2019-02-14T00:07:36.454Z,24.80
2019-02-14T00:08:36.409Z,27.10
2019-02-14T00:09:36.420Z,23.40
2019-02-14T00:10:36.182Z,24.40
2019-02-14T00:11:36.100Z,21.60
2019-02-14T00:12:36.027Z,21.70
2019-02-14T00:13:35.937Z,18.00
2019-02-14T00:14:35.836Z,19.10
2019-02-14T00:15:35.849Z,17.50
2019-02-14T00:16:35.659Z,18.60
2019-02-14T00:17:35.653Z,21.90
2019-02-14T00:18:35.500Z,19.40
2019-02-14T00:19:35.399Z,18.50
2019-02-14T00:20:35.466Z,18.40
2019-02-14T00:21:35.226Z,20.30
2019-02-14T00:22:35.130Z,17.30
2019-02-14T00:23:35.075Z,17.00
2019-02-14T00:24:34.979Z,17.00
2019-02-14T00:25:34.870Z,15.70
2019-02-14T00:26:34.891Z,17.80
2019-02-14T00:27:34.696Z,17.10
2019-02-14T00:28:34.610Z,15.80
2019-02-14T00:29:34.737Z,18.10
2019-02-14T00:30:34.434Z,18.20
2019-02-14T00:31:34.346Z,14.70
2019-02-14T00:32:34.319Z,16.10
2019-02-14T00:33:34.170Z,16.80
2019-02-14T00:34:34.099Z,15.80
2019-02-14T00:35:34.135Z,15.40
2019-02-14T00:36:33.906Z,17.90
2019-02-14T00:37:33.822Z,15.40
2019-02-14T00:38:33.946Z,16.10
2019-02-14T00:39:33.660Z,14.30
2019-02-14T00:40:33.558Z,15.40
2019-02-14T00:41:33.557Z,14.30
2019-02-14T00:42:33.383Z,15.80
2019-02-14T00:43:33.293Z,15.10
2019-02-14T00:44:33.404Z,15.80
2019-02-14T00:45:34.706Z,17.30
2019-02-14T00:46:33.028Z,14.70
2019-02-14T00:47:32.981Z,15.20
2019-02-14T00:48:32.857Z,14.40
2019-02-14T00:49:32.780Z,14.60
2019-02-14T00:50:32.797Z,15.30
2019-02-14T00:51:32.591Z,15.40
2019-02-14T00:52:32.605Z,14.00
2019-02-14T00:53:32.414Z,14.40
2019-02-14T00:54:32.347Z,14.40
2019-02-14T00:55:32.420Z,14.30
2019-02-14T00:56:32.153Z,15.30
2019-02-14T00:57:32.062Z,13.50
2019-02-14T00:58:32.030Z,14.60
2019-02-14T00:59:31.900Z,15.60
2019-02-14T01:00:31.799Z,14.60
2019-02-14T01:01:31.846Z,15.40
2019-02-14T01:02:31.622Z,14.60
2019-02-14T01:03:31.532Z,15.00
2019-02-14T01:04:31.488Z,14.20
2019-02-14T01:05:33.609Z,14.30
2019-02-14T01:06:31.470Z,14.00
2019-02-14T01:07:31.183Z,14.70
2019-02-14T01:08:31.274Z,15.30
2019-02-14T01:09:31.022Z,14.70
2019-02-14T01:10:30.922Z,14.80
2019-02-14T01:11:30.889Z,14.30
2019-02-14T01:12:30.742Z,13.90
2019-02-14T01:13:30.654Z,14.30
2019-02-14T01:14:30.735Z,15.10
2019-02-14T01:15:30.477Z,13.90
2019-02-14T01:16:30.512Z,14.30
2019-02-14T01:17:30.299Z,13.60
2019-02-14T01:18:30.323Z,16.60
2019-02-14T01:19:30.140Z,15.30
2019-02-14T01:20:30.039Z,14.20
2019-02-14T01:21:30.135Z,14.10
2019-02-14T01:22:29.860Z,14.60
2019-02-14T01:23:29.775Z,15.30
2019-02-14T01:24:29.778Z,14.00
2019-02-14T01:25:29.598Z,15.10
2019-02-14T01:26:29.509Z,15.50
2019-02-14T01:27:29.557Z,14.60
2019-02-14T01:28:29.331Z,14.70
2019-02-14T01:29:29.258Z,14.30
2019-02-14T01:30:29.171Z,13.60
2019-02-14T01:31:29.069Z,13.40
2019-02-14T01:32:28.987Z,14.20
2019-02-14T01:33:28.985Z,14.50
2019-02-14T01:34:28.830Z,14.20
2019-02-14T01:35:28.717Z,15.30
2019-02-14T01:36:28.626Z,14.00
2019-02-14T01:37:28.602Z,14.40
2019-02-14T01:38:28.451Z,14.70
2019-02-14T01:39:28.362Z,17.90
2019-02-14T01:40:28.291Z,13.80
2019-02-14T01:41:28.216Z,14.80
2019-02-14T01:42:28.094Z,14.90
2019-02-14T01:43:28.024Z,15.10
2019-02-14T01:44:27.920Z,14.00
2019-02-14T01:45:27.871Z,14.30
2019-02-14T01:46:27.744Z,13.70
2019-02-14T01:47:27.847Z,14.10
2019-02-14T01:48:27.571Z,14.70
2019-02-14T01:49:27.656Z,16.50
2019-02-14T01:50:27.407Z,14.20
2019-02-14T01:51:27.306Z,14.90
2019-02-14T01:52:27.269Z,15.50
2019-02-14T01:53:27.126Z,14.90
2019-02-14T01:54:27.036Z,15.50
2019-02-14T01:55:27.116Z,15.50
2019-02-14T01:56:26.872Z,14.80
2019-02-14T01:57:26.897Z,14.60
2019-02-14T01:58:26.687Z,15.10
2019-02-14T01:59:26.700Z,15.20
2019-02-14T02:00:26.522Z,15.50
2019-02-14T02:01:26.420Z,18.40
2019-02-14T02:02:26.519Z,15.30
2019-02-14T02:03:26.245Z,18.90
2019-02-14T02:04:26.154Z,15.40
2019-02-14T02:05:26.156Z,18.00
2019-02-14T02:06:25.978Z,15.10
2019-02-14T02:07:25.932Z,16.60
2019-02-14T02:08:25.801Z,16.60
2019-02-14T02:09:25.741Z,16.90
2019-02-14T02:10:25.637Z,16.50
2019-02-14T02:11:25.755Z,16.60
2019-02-14T02:12:25.449Z,17.30
2019-02-14T02:13:25.564Z,17.70
2019-02-14T02:14:25.272Z,17.40
2019-02-14T02:15:25.403Z,17.90
2019-02-14T02:16:25.093Z,18.30
2019-02-14T02:17:25.179Z,16.80
2019-02-14T02:18:24.920Z,19.20
2019-02-14T02:19:24.988Z,18.00
2019-02-14T02:20:33.028Z,21.80
2019-02-14T02:21:24.796Z,23.70
2019-02-14T02:22:24.560Z,19.00
2019-02-14T02:23:24.605Z,19.90
2019-02-14T02:24:24.391Z,19.60
2019-02-14T02:25:24.444Z,20.50
2019-02-14T02:26:24.206Z,22.20
2019-02-14T02:27:24.221Z,28.80
2019-02-14T02:28:24.032Z,28.00
2019-02-14T02:29:24.033Z,26.00
2019-02-14T02:30:23.867Z,23.70
2019-02-14T02:31:23.765Z,23.70
2019-02-14T02:32:23.847Z,25.90
2019-02-14T02:33:23.591Z,31.10
2019-02-14T02:34:23.496Z,27.30
2019-02-14T02:35:23.491Z,31.00
2019-02-14T02:36:23.322Z,29.20
2019-02-14T02:37:23.265Z,26.90
2019-02-14T02:38:23.141Z,28.70
2019-02-14T02:39:23.129Z,27.10
2019-02-14T02:40:22.980Z,30.30
2019-02-14T02:41:22.876Z,28.80
2019-02-14T02:42:22.888Z,30.90
2019-02-14T02:43:22.698Z,29.90
2019-02-14T02:44:22.611Z,31.30
2019-02-14T02:45:22.738Z,33.40
2019-02-14T02:46:22.431Z,32.10
2019-02-14T02:47:22.343Z,32.40
2019-02-14T02:48:22.314Z,32.60
2019-02-14T02:49:22.177Z,31.80
2019-02-14T02:50:22.154Z,32.50
2019-02-14T02:51:21.987Z,34.80
2019-02-14T02:52:21.932Z,34.50
2019-02-14T02:53:21.808Z,33.60
2019-02-14T02:54:21.942Z,31.60
2019-02-14T02:55:21.648Z,30.80
2019-02-14T02:56:21.761Z,33.50
2019-02-14T02:57:21.463Z,34.40
2019-02-14T02:58:21.561Z,35.20
2019-02-14T02:59:21.276Z,30.60
2019-02-14T03:00:21.404Z,31.90
2019-02-14T03:01:21.094Z,30.60
2019-02-14T03:02:21.176Z,30.60
2019-02-14T03:03:20.922Z,29.90
2019-02-14T03:04:20.985Z,27.90
2019-02-14T03:05:20.922Z,27.90
2019-02-14T03:06:20.651Z,30.00
2019-02-14T03:07:20.564Z,32.80
2019-02-14T03:08:20.602Z,26.80
2019-02-14T03:09:20.388Z,25.90
2019-02-14T03:10:20.294Z,28.50
2019-02-14T03:11:20.221Z,25.70
2019-02-14T03:12:20.224Z,25.70
2019-02-14T03:13:20.026Z,26.30
2019-02-14T03:14:19.941Z,25.20
2019-02-14T03:15:19.858Z,25.40
2019-02-14T03:16:19.778Z,26.80
2019-02-14T03:17:19.673Z,26.00
2019-02-14T03:18:19.653Z,21.50
2019-02-14T03:19:19.492Z,23.70
2019-02-14T03:20:19.399Z,24.70
2019-02-14T03:21:19.490Z,24.20
2019-02-14T03:22:19.226Z,23.30
2019-02-14T03:23:19.132Z,23.30
2019-02-14T03:24:19.070Z,21.70
2019-02-14T03:25:18.960Z,22.60
2019-02-14T03:26:18.911Z,21.60
2019-02-14T03:27:18.885Z,20.50
2019-02-14T03:28:18.696Z,22.00
2019-02-14T03:29:18.599Z,22.70
2019-02-14T03:30:18.707Z,20.50
2019-02-14T03:31:18.436Z,20.00
2019-02-14T03:32:18.333Z,20.80
2019-02-14T03:33:18.310Z,19.00
2019-02-14T03:34:18.155Z,20.30
2019-02-14T03:35:18.064Z,17.60
2019-02-14T03:36:19.439Z,18.00
2019-02-14T03:37:17.884Z,18.30
2019-02-14T03:38:17.796Z,19.50
2019-02-14T03:39:17.737Z,18.20
2019-02-14T03:40:17.620Z,18.50
2019-02-14T03:41:17.543Z,19.70
2019-02-14T03:42:17.552Z,22.00
2019-02-14T03:43:17.352Z,26.10
2019-02-14T03:44:17.264Z,24.50
2019-02-14T03:45:17.365Z,25.80
2019-02-14T03:46:17.098Z,24.00
2019-02-14T03:47:16.992Z,23.80
2019-02-14T03:48:16.976Z,25.20
2019-02-14T03:49:16.813Z,27.10
2019-02-14T03:50:16.727Z,22.40
2019-02-14T03:51:16.823Z,21.60
2019-02-14T03:52:16.546Z,21.40
2019-02-14T03:53:16.457Z,22.70
2019-02-14T03:54:16.400Z,20.40
2019-02-14T03:55:16.318Z,22.20
2019-02-14T03:56:16.206Z,19.70
2019-02-14T03:57:17.240Z,21.80
2019-02-14T03:58:16.011Z,20.20
2019-02-14T03:59:16.026Z,21.40
2019-02-14T04:00:15.833Z,19.00
2019-02-14T04:01:15.867Z,16.50
2019-02-14T04:02:15.651Z,16.80
2019-02-14T04:03:15.565Z,17.00
2019-02-14T04:04:15.649Z,17.20
2019-02-14T04:05:15.386Z,16.50
2019-02-14T04:06:15.348Z,15.40
2019-02-14T04:07:15.257Z,18.50
2019-02-14T04:08:15.114Z,16.20
2019-02-14T04:09:15.067Z,15.40
2019-02-14T04:10:14.934Z,15.70
2019-02-14T04:11:14.870Z,14.70
2019-02-14T04:12:14.758Z,16.00
2019-02-14T04:13:14.670Z,14.40
2019-02-14T04:14:14.690Z,15.00
2019-02-14T04:15:14.487Z,14.80
2019-02-14T04:16:14.415Z,15.30
2019-02-14T04:17:14.505Z,14.40
2019-02-14T04:18:14.221Z,13.40
2019-02-14T04:19:14.132Z,13.80
2019-02-14T04:20:14.114Z,14.20
2019-02-14T04:21:13.973Z,13.60
2019-02-14T04:22:13.868Z,13.90
2019-02-14T04:23:13.931Z,16.30
2019-02-14T04:24:13.685Z,14.70
2019-02-14T04:25:13.740Z,14.30
2019-02-14T04:26:13.519Z,14.80
2019-02-14T04:27:13.416Z,14.90
2019-02-14T04:28:13.350Z,14.10
2019-02-14T04:29:13.235Z,13.50
2019-02-14T04:30:13.150Z,15.00
2019-02-14T04:31:13.196Z,14.00
2019-02-14T04:32:12.965Z,13.50
2019-02-14T04:33:12.884Z,15.90
2019-02-14T04:34:12.978Z,14.70
2019-02-14T04:35:12.700Z,16.80
2019-02-14T04:36:12.790Z,14.50
2019-02-14T04:37:12.532Z,14.20
2019-02-14T04:38:12.598Z,15.30
2019-02-14T04:39:12.341Z,14.40
2019-02-14T04:40:12.413Z,14.30
2019-02-14T04:41:12.162Z,14.60
2019-02-14T04:42:12.248Z,15.70
2019-02-14T04:43:11.983Z,14.10
2019-02-14T04:44:12.021Z,14.40
2019-02-14T04:45:11.808Z,15.10
2019-02-14T04:46:11.829Z,14.80
2019-02-14T04:47:11.643Z,13.90
2019-02-14T04:48:11.641Z,14.00
2019-02-14T04:49:11.446Z,13.90
2019-02-14T04:50:11.452Z,14.50
2019-02-14T04:51:11.280Z,14.60
2019-02-14T04:52:11.287Z,14.10
2019-02-14T04:53:11.087Z,13.50
2019-02-14T04:54:11.005Z,14.00
2019-02-14T04:55:10.910Z,14.40
2019-02-14T04:56:10.873Z,13.40
2019-02-14T04:57:10.748Z,14.60
2019-02-14T04:58:10.677Z,14.00
2019-02-14T04:59:10.551Z,13.50
2019-02-14T05:00:10.487Z,13.80
2019-02-14T05:01:10.372Z,16.20
2019-02-14T05:02:10.327Z,14.90
2019-02-14T05:03:10.194Z,14.80
2019-02-14T05:04:10.102Z,14.20
2019-02-14T05:05:10.118Z,13.90
2019-02-14T05:06:09.923Z,14.20
2019-02-14T05:07:09.849Z,12.90
2019-02-14T05:08:09.927Z,14.10
2019-02-14T05:09:09.653Z,15.60
2019-02-14T05:10:09.741Z,13.30
2019-02-14T05:11:09.478Z,13.40
2019-02-14T05:12:09.575Z,13.40
2019-02-14T05:13:09.295Z,14.80
2019-02-14T05:14:09.206Z,13.80
2019-02-14T05:15:09.160Z,16.10
2019-02-14T05:16:09.039Z,14.20
2019-02-14T05:17:08.953Z,14.50
2019-02-14T05:18:08.969Z,13.20
2019-02-14T05:19:08.759Z,15.70
2019-02-14T05:20:08.671Z,13.80
2019-02-14T05:21:08.578Z,13.50
2019-02-14T05:22:08.619Z,13.70
2019-02-14T05:23:08.405Z,13.80
2019-02-14T05:24:08.312Z,25.00
2019-02-14T05:25:08.220Z,23.90
2019-02-14T05:26:08.201Z,18.80
2019-02-14T05:27:08.054Z,23.90
2019-02-14T05:28:07.954Z,31.30
2019-02-14T05:29:08.018Z,42.50
2019-02-14T05:30:07.774Z,40.50
2019-02-14T05:31:07.824Z,22.20
2019-02-14T05:32:07.607Z,34.30
2019-02-14T05:33:07.504Z,28.70
2019-02-14T05:34:07.436Z,25.40
2019-02-14T05:35:07.326Z,25.20
2019-02-14T05:36:07.236Z,22.40
2019-02-14T05:37:07.283Z,23.10
2019-02-14T05:38:07.058Z,23.70
2019-02-14T05:39:06.964Z,18.50
2019-02-14T05:40:07.076Z,18.30
2019-02-14T05:41:06.791Z,17.20
2019-02-14T05:42:06.908Z,16.50
2019-02-14T05:43:06.605Z,15.90
2019-02-14T05:44:06.516Z,16.60
2019-02-14T05:45:06.470Z,15.90
2019-02-14T05:46:06.336Z,16.00
2019-02-14T05:47:06.250Z,17.10
2019-02-14T05:48:06.333Z,15.10
2019-02-14T05:49:06.066Z,15.60
2019-02-14T05:50:06.109Z,15.40
2019-02-14T05:51:05.898Z,16.60
2019-02-14T05:52:05.805Z,15.30
2019-02-14T05:53:05.721Z,15.60
2019-02-14T05:54:05.625Z,14.70
2019-02-14T05:55:05.534Z,15.10
2019-02-14T05:56:05.446Z,15.10
2019-02-14T05:57:05.351Z,15.60
2019-02-14T05:58:05.282Z,17.90
2019-02-14T05:59:05.170Z,14.60
2019-02-14T06:00:05.080Z,14.30
2019-02-14T06:01:04.997Z,14.30
2019-02-14T06:02:04.902Z,15.50
2019-02-14T06:03:04.826Z,16.30
2019-02-14T06:04:04.727Z,14.90
2019-02-14T06:05:04.631Z,16.70
2019-02-14T06:06:04.549Z,19.20
2019-02-14T06:07:04.452Z,15.70
2019-02-14T06:08:04.383Z,13.70
2019-02-14T06:09:04.274Z,15.30
2019-02-14T06:10:04.192Z,14.50
2019-02-14T06:11:04.118Z,14.20
2019-02-14T06:12:04.013Z,14.20
2019-02-14T06:13:03.927Z,15.20
2019-02-14T06:14:03.824Z,13.90
2019-02-14T06:15:03.739Z,14.60
2019-02-14T06:16:03.645Z,16.00
2019-02-14T06:17:03.556Z,14.90
2019-02-14T06:18:03.488Z,14.60
2019-02-14T06:19:03.377Z,18.30
2019-02-14T06:20:03.287Z,18.90
2019-02-14T06:21:03.205Z,16.10
2019-02-14T06:22:03.105Z,14.80
2019-02-14T06:23:03.035Z,15.50
2019-02-14T06:24:02.935Z,16.50
2019-02-14T06:25:02.851Z,17.80
2019-02-14T06:26:02.752Z,14.30
2019-02-14T06:27:02.667Z,14.10
2019-02-14T06:28:02.586Z,13.50
2019-02-14T06:29:02.475Z,14.70
2019-02-14T06:30:02.394Z,13.90
2019-02-14T06:31:02.301Z,14.40
2019-02-14T06:32:02.216Z,14.50
2019-02-14T06:33:02.138Z,15.00
2019-02-14T06:34:02.032Z,13.90
2019-02-14T06:35:01.939Z,15.00
2019-02-14T06:36:01.850Z,14.90
2019-02-14T06:37:09.291Z,14.80
2019-02-14T06:38:01.690Z,14.40
2019-02-14T06:39:01.578Z,16.00
2019-02-14T06:40:01.486Z,14.80
2019-02-14T06:41:01.403Z,14.30
2019-02-14T06:42:01.308Z,14.70
2019-02-14T06:43:01.230Z,18.40
2019-02-14T06:44:01.150Z,14.10
2019-02-14T06:45:01.048Z,18.80
2019-02-14T06:46:00.959Z,17.00
2019-02-14T06:47:00.863Z,17.60
2019-02-14T06:48:00.783Z,18.40
2019-02-14T06:49:00.710Z,17.60
2019-02-14T06:50:00.594Z,16.60
2019-02-14T06:51:00.499Z,16.60
2019-02-14T06:52:00.418Z,17.40
2019-02-14T06:53:00.336Z,19.40
2019-02-14T06:54:00.232Z,16.80
2019-02-14T06:55:00.275Z,17.00
2019-02-14T06:56:00.051Z,15.40
2019-02-14T06:56:59.960Z,18.10
2019-02-14T06:57:59.900Z,15.40
2019-02-14T06:58:59.781Z,16.90
2019-02-14T06:59:59.694Z,25.50
2019-02-14T07:00:59.605Z,20.80
2019-02-14T07:01:59.518Z,19.40
2019-02-14T07:02:59.462Z,19.40
2019-02-14T07:03:59.332Z,22.50
2019-02-14T07:04:59.248Z,20.40
2019-02-14T07:05:59.156Z,31.90
2019-02-14T07:06:59.069Z,55.00
2019-02-14T07:07:58.977Z,49.10
2019-02-14T07:08:58.903Z,75.70
2019-02-14T07:09:58.798Z,56.70
2019-02-14T07:10:58.704Z,47.40
2019-02-14T07:11:58.620Z,58.40
2019-02-14T07:12:58.525Z,62.80
2019-02-14T07:13:58.463Z,52.80
2019-02-14T07:14:58.385Z,46.70
2019-02-14T07:15:58.255Z,57.50
2019-02-14T07:16:58.180Z,41.60
2019-02-14T07:17:58.076Z,43.40
2019-02-14T07:18:58.007Z,40.80
2019-02-14T07:19:57.907Z,41.40
2019-02-14T07:20:57.809Z,43.10
2019-02-14T07:21:58.940Z,41.30
2019-02-14T07:22:57.630Z,45.20
2019-02-14T07:23:57.558Z,43.70
2019-02-14T07:24:57.518Z,36.80
2019-02-14T07:25:57.360Z,37.30
2019-02-14T07:26:57.274Z,34.50
2019-02-14T07:27:57.337Z,25.70
2019-02-14T07:28:57.107Z,23.70
2019-02-14T07:29:57.001Z,24.80
2019-02-14T07:30:56.947Z,27.00
2019-02-14T07:31:56.824Z,25.90
2019-02-14T07:32:56.734Z,23.40
2019-02-14T07:33:56.794Z,18.50
2019-02-14T07:34:56.556Z,22.00
2019-02-14T07:35:56.471Z,20.50
2019-02-14T07:36:56.584Z,19.80
2019-02-14T07:37:56.284Z,19.20
2019-02-14T07:38:56.214Z,21.60
2019-02-14T07:39:56.117Z,20.00
2019-02-14T07:40:56.016Z,20.20
2019-02-14T07:41:55.931Z,17.90
2019-02-14T07:42:55.903Z,19.70
2019-02-14T07:43:55.765Z,19.40
2019-02-14T07:44:55.664Z,19.30
2019-02-14T07:45:55.578Z,21.10
2019-02-14T07:46:55.482Z,19.10
2019-02-14T07:47:55.406Z,17.60
2019-02-14T07:48:55.320Z,20.00
2019-02-14T07:49:55.223Z,16.70
2019-02-14T07:50:55.128Z,20.70
2019-02-14T07:51:55.044Z,17.30
2019-02-14T07:52:54.958Z,17.80
2019-02-14T07:53:55.087Z,13.80
2019-02-14T07:54:54.790Z,15.00
2019-02-14T07:55:54.686Z,15.10
2019-02-14T07:56:54.663Z,13.80
2019-02-14T07:57:54.512Z,14.10
2019-02-14T07:58:54.438Z,14.30
2019-02-14T07:59:54.343Z,11.20
2019-02-14T08:00:54.248Z,14.40
2019-02-14T08:01:54.161Z,13.10
2019-02-14T08:02:54.087Z,15.50
2019-02-14T08:03:54.009Z,12.10
2019-02-14T08:04:53.902Z,13.10
2019-02-14T08:05:53.829Z,13.30
2019-02-14T08:06:53.731Z,13.00
2019-02-14T08:07:53.644Z,11.40
2019-02-14T08:08:53.750Z,10.40
2019-02-14T08:09:53.473Z,11.40
2019-02-14T08:10:53.392Z,11.90
2019-02-14T08:11:53.310Z,12.10
2019-02-14T08:12:53.219Z,11.90
2019-02-14T08:13:53.151Z,10.20
2019-02-14T08:14:53.177Z,10.80
2019-02-14T08:15:52.963Z,10.70
2019-02-14T08:16:52.951Z,11.50
2019-02-14T08:17:52.796Z,11.00
2019-02-14T08:18:52.716Z,11.40
2019-02-14T08:19:52.642Z,12.50
2019-02-14T08:20:52.559Z,14.30
2019-02-14T08:21:52.458Z,10.60
2019-02-14T08:22:52.377Z,13.90
2019-02-14T08:23:52.287Z,10.90
2019-02-14T08:24:52.224Z,11.60
2019-02-14T08:25:52.121Z,12.20
2019-02-14T08:26:52.041Z,11.70
2019-02-14T08:27:51.954Z,10.60
2019-02-14T08:28:51.876Z,11.70
2019-02-14T08:29:51.889Z,11.00
2019-02-14T08:30:51.702Z,10.70
2019-02-14T08:31:51.622Z,14.60
2019-02-14T08:32:51.537Z,30.50
2019-02-14T08:33:51.452Z,24.60
2019-02-14T08:34:51.386Z,22.70
2019-02-14T08:35:51.282Z,17.40
2019-02-14T08:36:51.201Z,17.00
2019-02-14T08:37:51.127Z,11.40
2019-02-14T08:38:51.035Z,12.10
2019-02-14T08:39:50.979Z,11.80
2019-02-14T08:40:50.871Z,13.60
2019-02-14T08:41:50.785Z,12.80
2019-02-14T08:42:50.710Z,11.20
2019-02-14T08:43:50.619Z,12.20
2019-02-14T08:44:50.546Z,12.20
2019-02-14T08:45:50.452Z,14.00
2019-02-14T08:46:50.376Z,13.90
2019-02-14T08:47:50.289Z,14.10
2019-02-14T08:48:50.204Z,15.90
2019-02-14T08:49:50.142Z,13.10
2019-02-14T08:50:50.047Z,12.80
2019-02-14T08:51:49.955Z,11.00
2019-02-14T08:52:49.871Z,9.80
2019-02-14T08:53:49.795Z,9.60
2019-02-14T08:54:49.722Z,9.80
2019-02-14T08:55:49.626Z,10.80
2019-02-14T08:56:49.553Z,10.30
2019-02-14T08:57:49.463Z,9.40
2019-02-14T08:58:49.375Z,11.30
2019-02-14T08:59:49.316Z,9.30
2019-02-14T09:00:49.211Z,10.20
2019-02-14T09:01:49.130Z,8.80
2019-02-14T09:02:49.162Z,8.90
2019-02-14T09:03:48.968Z,11.40
2019-02-14T09:04:48.898Z,11.90
2019-02-14T09:05:48.818Z,13.10
2019-02-14T09:06:48.741Z,10.90
2019-02-14T09:07:54.745Z,10.60
2019-02-14T09:08:48.556Z,9.70
2019-02-14T09:09:48.492Z,11.10
2019-02-14T09:10:48.395Z,10.90
2019-02-14T09:11:48.312Z,11.60
2019-02-14T09:12:48.236Z,9.30
2019-02-14T09:13:48.154Z,11.70
2019-02-14T09:14:48.078Z,9.70
2019-02-14T09:15:47.991Z,9.40
2019-02-14T09:16:47.902Z,9.50
2019-02-14T09:17:47.829Z,9.40
2019-02-14T09:18:47.738Z,11.90
2019-02-14T09:19:47.679Z,9.70
2019-02-14T09:20:47.585Z,9.90
2019-02-14T09:21:47.500Z,9.80
2019-02-14T09:22:47.425Z,7.70
2019-02-14T09:23:47.342Z,10.80
2019-02-14T09:24:47.261Z,10.50
2019-02-14T09:25:47.172Z,9.10
2019-02-14T09:26:47.086Z,8.00
2019-02-14T09:27:47.016Z,8.60
2019-02-14T09:28:46.925Z,8.40
2019-02-14T09:29:46.868Z,9.50
2019-02-14T09:30:46.762Z,10.60
2019-02-14T09:31:46.682Z,8.00
2019-02-14T09:32:46.606Z,9.60
2019-02-14T09:33:46.520Z,9.30
2019-02-14T09:34:46.455Z,9.00
2019-02-14T09:35:46.510Z,10.20
2019-02-14T09:36:46.282Z,9.80
2019-02-14T09:37:46.198Z,10.60
2019-02-14T09:38:46.123Z,9.80
2019-02-14T09:39:46.051Z,9.00
2019-02-14T09:40:45.959Z,9.70
2019-02-14T09:41:45.884Z,8.90
2019-02-14T09:42:45.795Z,9.30
2019-02-14T09:43:45.774Z,9.50
2019-02-14T09:44:45.654Z,10.90
2019-02-14T09:45:45.566Z,10.50
2019-02-14T09:46:45.478Z,11.30
2019-02-14T09:47:45.399Z,13.30
2019-02-14T09:48:45.310Z,7.60
2019-02-14T09:49:45.257Z,11.30
2019-02-14T09:50:45.153Z,11.70
2019-02-14T09:51:45.083Z,9.40
2019-02-14T09:52:45.009Z,10.40
2019-02-14T09:53:44.913Z,9.10
2019-02-14T09:54:44.857Z,8.50
2019-02-14T09:55:44.760Z,9.80
2019-02-14T09:56:44.662Z,10.10
2019-02-14T09:57:44.630Z,8.60
2019-02-14T09:58:44.503Z,9.80
2019-02-14T09:59:44.623Z,8.90
2019-02-14T10:00:44.379Z,6.10
2019-02-14T10:01:44.431Z,8.20
2019-02-14T10:02:44.193Z,8.20
2019-02-14T10:03:44.103Z,7.80
2019-02-14T10:04:44.017Z,8.70
2019-02-14T10:05:43.957Z,10.10
2019-02-14T10:06:43.873Z,10.30
2019-02-14T10:07:43.772Z,7.50
2019-02-14T10:08:43.875Z,10.30
2019-02-14T10:09:43.624Z,9.00
2019-02-14T10:10:43.545Z,10.00
2019-02-14T10:11:43.472Z,9.80
2019-02-14T10:12:43.367Z,9.30
2019-02-14T10:13:43.290Z,8.40
2019-02-14T10:14:43.211Z,10.90
2019-02-14T10:15:43.149Z,8.60
2019-02-14T10:16:43.046Z,8.30
2019-02-14T10:17:42.973Z,9.80
2019-02-14T10:18:42.887Z,8.50
2019-02-14T10:19:42.805Z,9.90
2019-02-14T10:20:42.749Z,9.80
2019-02-14T10:21:42.644Z,9.90
2019-02-14T10:22:42.568Z,6.30
2019-02-14T10:23:42.489Z,8.50
2019-02-14T10:24:42.402Z,6.40
2019-02-14T10:25:42.342Z,8.40
2019-02-14T10:26:42.240Z,8.20
2019-02-14T10:27:42.169Z,8.60
2019-02-14T10:28:42.078Z,5.60
2019-02-14T10:29:42.062Z,5.40
2019-02-14T10:30:41.933Z,7.60
2019-02-14T10:31:41.843Z,7.50
2019-02-14T10:32:41.755Z,9.10
2019-02-14T10:33:41.675Z,7.10
2019-02-14T10:34:41.600Z,6.80
2019-02-14T10:35:41.528Z,8.90
2019-02-14T10:36:41.438Z,10.70
2019-02-14T10:37:41.359Z,7.30
2019-02-14T10:38:41.273Z,6.50
2019-02-14T10:39:41.199Z,9.20
2019-02-14T10:40:41.124Z,7.00
2019-02-14T10:41:41.214Z,7.80
2019-02-14T10:42:40.953Z,8.90
2019-02-14T10:43:48.674Z,8.50
2019-02-14T10:44:40.788Z,8.00
2019-02-14T10:45:40.732Z,7.50
2019-02-14T10:46:40.654Z,7.90
2019-02-14T10:47:40.548Z,7.80
2019-02-14T10:48:40.476Z,7.70
2019-02-14T10:49:40.390Z,8.10
2019-02-14T10:50:40.318Z,9.40
2019-02-14T10:51:40.258Z,7.60
2019-02-14T10:52:40.148Z,10.30
2019-02-14T10:53:40.065Z,8.30
2019-02-14T10:54:40.070Z,7.90
2019-02-14T10:55:39.925Z,7.40
2019-02-14T10:56:39.829Z,8.10
2019-02-14T10:57:39.884Z,8.70
2019-02-14T10:58:43.212Z,9.60
2019-02-14T10:59:39.695Z,6.10
2019-02-14T11:00:39.522Z,6.70
2019-02-14T11:01:39.445Z,5.10
2019-02-14T11:02:39.348Z,8.10
2019-02-14T11:03:39.278Z,7.30
2019-02-14T11:04:39.188Z,8.60
2019-02-14T11:05:39.128Z,8.70
2019-02-14T11:06:39.029Z,6.90
2019-02-14T11:07:38.950Z,11.70
2019-02-14T11:08:38.878Z,5.60
2019-02-14T11:09:38.794Z,8.70
2019-02-14T11:10:40.042Z,9.00
2019-02-14T11:11:38.629Z,9.00
2019-02-14T11:12:38.550Z,7.30
2019-02-14T11:13:38.476Z,7.00
2019-02-14T11:14:38.389Z,7.80
2019-02-14T11:15:38.330Z,5.30
2019-02-14T11:16:38.233Z,6.60
2019-02-14T11:17:38.149Z,5.70
2019-02-14T11:18:43.910Z,6.80
2019-02-14T11:19:37.989Z,6.40
2019-02-14T11:20:37.922Z,7.50
2019-02-14T11:21:37.844Z,8.40
2019-02-14T11:22:37.747Z,5.50
2019-02-14T11:23:37.668Z,6.00
2019-02-14T11:24:37.597Z,9.40
2019-02-14T11:25:37.522Z,6.50
2019-02-14T11:26:37.434Z,7.70
2019-02-14T11:27:37.345Z,12.40
2019-02-14T11:28:37.274Z,6.10
2019-02-14T11:29:37.185Z,6.50
2019-02-14T11:30:37.130Z,7.80
2019-02-14T11:31:37.027Z,8.00
2019-02-14T11:32:36.951Z,8.00
2019-02-14T11:33:36.866Z,7.70
2019-02-14T11:34:36.795Z,6.70
2019-02-14T11:35:36.722Z,6.70
2019-02-14T11:36:36.631Z,9.70
2019-02-14T11:37:36.547Z,7.80
2019-02-14T11:38:40.590Z,6.50
2019-02-14T11:39:36.385Z,9.90
2019-02-14T11:40:36.326Z,8.60
2019-02-14T11:41:36.228Z,7.40
2019-02-14T11:42:36.150Z,6.80
2019-02-14T11:43:36.063Z,7.40
2019-02-14T11:44:39.891Z,8.20
2019-02-14T11:45:35.919Z,10.70
2019-02-14T11:46:35.842Z,11.50
2019-02-14T11:47:35.742Z,7.40
2019-02-14T11:48:35.667Z,8.70
2019-02-14T11:49:35.581Z,6.30
2019-02-14T11:50:35.509Z,5.60
2019-02-14T11:51:35.439Z,7.80
2019-02-14T11:52:35.344Z,9.00
2019-02-14T11:53:35.259Z,6.50
2019-02-14T11:54:35.190Z,4.90
2019-02-14T11:55:35.098Z,7.50
2019-02-14T11:56:35.037Z,6.60
2019-02-14T11:57:34.939Z,8.70
2019-02-14T11:58:34.860Z,8.10
2019-02-14T11:59:34.788Z,8.10
2019-02-14T12:00:34.697Z,8.50
2019-02-14T12:01:34.632Z,8.70
2019-02-14T12:02:34.545Z,7.10
2019-02-14T12:03:34.464Z,9.80
2019-02-14T12:04:34.380Z,10.90
2019-02-14T12:05:34.305Z,7.40
2019-02-14T12:06:34.286Z,6.60
2019-02-14T12:07:34.138Z,5.80
2019-02-14T12:08:34.065Z,6.90
2019-02-14T12:09:33.998Z,5.30
2019-02-14T12:10:33.908Z,8.00
2019-02-14T12:11:33.841Z,6.30
2019-02-14T12:12:33.748Z,5.90
2019-02-14T12:13:33.661Z,5.50
2019-02-14T12:14:33.580Z,5.10
2019-02-14T12:15:33.671Z,6.10
2019-02-14T12:16:33.430Z,6.50
2019-02-14T12:17:33.343Z,5.40
2019-02-14T12:18:33.458Z,6.30
2019-02-14T12:19:33.181Z,4.80
2019-02-14T12:20:33.271Z,5.60
2019-02-14T12:21:33.034Z,6.90
2019-02-14T12:22:33.078Z,5.60
2019-02-14T12:23:32.862Z,5.90
2019-02-14T12:24:32.884Z,5.80
2019-02-14T12:25:32.713Z,7.10
2019-02-14T12:26:32.722Z,7.40
2019-02-14T12:27:32.539Z,4.90
2019-02-14T12:28:32.501Z,5.70
2019-02-14T12:29:32.380Z,8.70
2019-02-14T12:30:32.303Z,5.40
2019-02-14T12:31:32.317Z,4.90
2019-02-14T12:32:32.155Z,6.20
2019-02-14T12:33:32.058Z,5.40
2019-02-14T12:34:32.130Z,4.40
2019-02-14T12:35:31.903Z,6.00
2019-02-14T12:36:31.952Z,5.30
2019-02-14T12:37:31.752Z,8.70
2019-02-14T12:38:31.749Z,6.90
2019-02-14T12:39:31.578Z,9.90
2019-02-14T12:40:31.498Z,6.10
2019-02-14T12:41:31.562Z,6.60
2019-02-14T12:42:31.351Z,6.80
2019-02-14T12:43:31.372Z,7.60
2019-02-14T12:44:31.180Z,7.50
2019-02-14T12:45:31.179Z,6.70
2019-02-14T12:46:31.020Z,9.10
2019-02-14T12:47:31.026Z,7.90
2019-02-14T12:48:30.861Z,7.90
2019-02-14T12:49:30.804Z,8.60
2019-02-14T12:50:30.695Z,7.20
2019-02-14T12:51:30.809Z,6.30
2019-02-14T12:52:30.551Z,8.30
2019-02-14T12:53:31.983Z,5.20
2019-02-14T12:54:30.378Z,5.30
2019-02-14T12:55:30.430Z,7.40
2019-02-14T12:56:30.214Z,5.10
2019-02-14T12:57:30.155Z,5.90
2019-02-14T12:58:30.054Z,7.00